Time;durP1;ratioP1;P1;durP2;ratioP2;P2;SDS_P1;SDS_P2;PMS_P1;PMS_P2;Temp;Humidity;BMP_temperature;BMP_pressure;BME280_temperature;BME280_humidity;BME280_pressure;Samples;Min_cycle;Max_cycle;Signal;HPM_P1;HPM_P2
2022/07/26 00:00:12;;;;;;;11.35;6.00;;;;;;;15.14;84.31;97799.34;1849820;77;20869;-65
2022/07/26 00:02:40;;;;;;;7.90;5.12;;;;;;;15.11;84.44;97802.12;1849469;77;21154;-62
2022/07/26 00:05:08;;;;;;;7.55;4.70;;;;;;;15.07;84.53;97797.92;1849049;77;20920;-65
2022/07/26 00:07:35;;;;;;;6.78;3.90;;;;;;;15.04;84.62;97793.19;1849190;77;20939;-65
2022/07/26 00:10:01;;;;;;;7.72;4.33;;;;;;;14.98;84.76;97798.52;1849100;77;20919;-62
2022/07/26 00:12:29;;;;;;;6.50;3.75;;;;;;;14.96;84.94;97798.05;1849246;77;20896;-62
2022/07/26 00:14:56;;;;;;;7.90;3.80;;;;;;;14.96;85.07;97787.81;1849201;77;21228;-64
2022/07/26 00:17:23;;;;;;;8.13;5.00;;;;;;;14.96;85.29;97787.81;1849043;77;20869;-65
2022/07/26 00:19:49;;;;;;;7.33;4.28;;;;;;;14.96;85.39;97789.16;1849179;77;20888;-62
2022/07/26 00:22:34;;;;;;;6.85;4.25;;;;;;;14.96;85.63;97780.52;1849083;77;21000;-63
2022/07/26 00:25:06;;;;;;;10.60;4.40;;;;;;;14.96;85.73;97776.47;1849296;77;20840;-64
2022/07/26 00:27:35;;;;;;;6.15;3.80;;;;;;;14.98;85.80;97770.19;1849515;77;21717;-62
2022/07/26 00:30:04;;;;;;;5.08;3.27;;;;;;;15.01;85.87;97778.20;1849142;77;20900;-63
2022/07/26 00:32:31;;;;;;;8.60;3.22;;;;;;;15.02;85.99;97775.20;1849197;77;20899;-64
2022/07/26 00:34:57;;;;;;;5.47;3.02;;;;;;;15.03;85.92;97773.27;1849083;77;20916;-64
2022/07/26 00:37:24;;;;;;;9.30;3.12;;;;;;;15.03;85.81;97775.41;1849191;77;21876;-65
2022/07/26 00:39:50;;;;;;;4.87;3.42;;;;;;;15.02;85.73;97777.09;1849051;77;21281;-65
2022/07/26 00:42:17;;;;;;;4.42;3.30;;;;;;;14.96;85.73;97775.13;1849010;77;20962;-62
2022/07/26 00:44:44;;;;;;;8.08;3.50;;;;;;;14.92;85.72;97772.84;1849193;77;20861;-62
2022/07/26 00:47:12;;;;;;;6.72;3.72;;;;;;;14.89;85.88;97764.05;1849056;77;20848;-64
2022/07/26 00:49:38;;;;;;;9.65;4.58;;;;;;;14.86;85.89;97767.96;1849434;77;21446;-65
2022/07/26 00:52:05;;;;;;;8.03;4.20;;;;;;;14.83;86.02;97769.95;1849066;77;21096;-65
2022/07/26 00:54:32;;;;;;;7.00;4.50;;;;;;;14.84;85.94;97762.88;1848999;77;20899;-63
2022/07/26 00:56:59;;;;;;;8.28;4.40;;;;;;;14.82;85.78;97758.91;1849066;77;20896;-65
2022/07/26 00:59:26;;;;;;;5.45;3.52;;;;;;;14.79;85.72;97752.26;1849153;77;20888;-64
2022/07/26 01:01:53;;;;;;;6.80;3.87;;;;;;;14.76;85.68;97752.13;1849129;77;20868;-65
2022/07/26 01:04:19;;;;;;;6.42;3.30;;;;;;;14.74;85.77;97748.97;1849014;77;21913;-65
2022/07/26 01:06:47;;;;;;;6.67;3.77;;;;;;;14.69;85.98;97749.14;1849001;77;20920;-64
2022/07/26 01:09:14;;;;;;;6.10;3.30;;;;;;;14.64;86.11;97747.96;1849040;77;21325;-63
2022/07/26 01:11:42;;;;;;;6.35;3.60;;;;;;;14.60;86.37;97738.36;1849136;77;20908;-65
2022/07/26 01:14:08;;;;;;;4.92;3.27;;;;;;;14.59;86.58;97738.70;1849184;77;21004;-62
2022/07/26 01:16:36;;;;;;;4.72;2.70;;;;;;;14.61;86.67;97744.55;1849017;77;20971;-65
2022/07/26 01:19:02;;;;;;;4.05;2.62;;;;;;;14.60;86.82;97740.30;1848985;77;20876;-65
2022/07/26 01:21:30;;;;;;;5.25;2.90;;;;;;;14.61;86.88;97741.86;1853420;77;20837;-64
2022/07/26 01:23:57;;;;;;;3.90;3.02;;;;;;;14.61;86.86;97737.27;1849042;77;20979;-63
2022/07/26 01:26:23;;;;;;;4.47;2.90;;;;;;;14.58;86.80;97740.59;1849094;77;20857;-64
2022/07/26 01:28:50;;;;;;;7.40;4.03;;;;;;;14.57;86.80;97743.63;1849155;77;21216;-63
2022/07/26 01:31:17;;;;;;;5.70;4.15;;;;;;;14.55;86.88;97747.20;1849298;77;21423;-64
2022/07/26 01:33:44;;;;;;;8.53;4.10;;;;;;;14.55;87.05;97745.85;1849089;77;20960;-64
2022/07/26 01:36:11;;;;;;;7.58;3.52;;;;;;;14.53;87.16;97743.45;1849123;77;20884;-65
2022/07/26 01:38:40;;;;;;;6.17;3.47;;;;;;;14.54;87.36;97739.66;1849066;77;20966;-63
2022/07/26 01:41:06;;;;;;;7.58;3.12;;;;;;;14.55;87.33;97739.91;1849395;77;21171;-63
2022/07/26 01:43:33;;;;;;;4.47;2.80;;;;;;;14.54;87.23;97735.63;1848980;77;20868;-63
2022/07/26 01:45:59;;;;;;;7.10;3.60;;;;;;;14.50;87.13;97733.34;1849134;77;20821;-63
2022/07/26 01:48:26;;;;;;;4.92;3.33;;;;;;;14.46;87.10;97732.38;1849124;77;20922;-65
2022/07/26 01:50:52;;;;;;;7.47;3.60;;;;;;;14.41;87.01;97732.58;1849050;77;20949;-65
2022/07/26 01:53:19;;;;;;;7.55;4.20;;;;;;;14.39;87.02;97728.84;1849137;77;21271;-65
2022/07/26 01:55:45;;;;;;;7.55;4.15;;;;;;;14.36;87.10;97727.36;1849034;77;21418;-64
2022/07/26 01:58:12;;;;;;;8.05;4.05;;;;;;;14.32;87.10;97722.34;1849102;77;20956;-63
2022/07/26 02:00:38;;;;;;;5.92;3.47;;;;;;;14.29;87.14;97716.25;1848992;77;20920;-64
2022/07/26 02:03:05;;;;;;;4.55;3.20;;;;;;;14.25;87.14;97716.63;1849046;77;20954;-63
2022/07/26 02:05:32;;;;;;;8.63;3.20;;;;;;;14.25;87.22;97711.24;1849129;77;21122;-62
2022/07/26 02:07:58;;;;;;;3.98;2.80;;;;;;;14.26;87.17;97722.27;1849076;77;20872;-63
2022/07/26 02:10:59;;;;;;;6.05;3.30;;;;;;;14.25;87.10;97721.47;1849091;77;20908;-65
2022/07/26 02:12:53;;;;;;;5.35;3.20;;;;;;;14.24;87.08;97731.23;1849595;77;20837;-63
2022/07/26 02:15:19;;;;;;;8.60;3.30;;;;;;;14.22;87.02;97732.11;1849217;77;20868;-65
2022/07/26 02:17:46;;;;;;;4.00;3.15;;;;;;;14.21;87.01;97728.61;1849307;77;21208;-65
2022/07/26 02:20:15;;;;;;;5.00;3.58;;;;;;;14.18;87.04;97729.80;1849207;77;20868;-62
2022/07/26 02:22:41;;;;;;;6.42;3.80;;;;;;;14.14;87.01;97720.23;1849231;77;20860;-62
2022/07/26 02:25:08;;;;;;;9.10;3.80;;;;;;;14.11;87.02;97719.52;1849170;77;20962;-63
2022/07/26 02:27:35;;;;;;;6.72;3.40;;;;;;;14.10;87.16;97721.19;1849208;77;20958;-64
2022/07/26 02:30:01;;;;;;;6.30;3.52;;;;;;;14.08;87.22;97732.84;1849297;77;21309;-62
2022/07/26 02:32:28;;;;;;;6.15;3.55;;;;;;;14.07;87.22;97734.73;1849434;77;21443;-64
2022/07/26 02:34:54;;;;;;;5.92;3.47;;;;;;;14.07;87.15;97740.67;1849182;77;20979;-64
2022/07/26 02:37:21;;;;;;;4.67;2.90;;;;;;;14.02;87.07;97745.66;1849138;77;20911;-64
2022/07/26 02:39:47;;;;;;;4.87;3.35;;;;;;;13.97;87.04;97740.98;1849305;77;20923;-63
2022/07/26 02:42:14;;;;;;;7.28;3.20;;;;;;;13.93;87.15;97737.35;1849376;77;21087;-63
2022/07/26 02:44:40;;;;;;;4.83;3.20;;;;;;;13.90;87.27;97732.05;1849222;77;20891;-64
2022/07/26 02:47:07;;;;;;;8.10;2.98;;;;;;;13.89;87.46;97731.02;1849174;77;20954;-63
2022/07/26 02:49:33;;;;;;;5.37;2.95;;;;;;;13.88;87.56;97732.92;1849266;77;20869;-64
2022/07/26 02:52:00;;;;;;;3.90;3.00;;;;;;;13.89;87.69;97733.72;1849188;77;20837;-63
2022/07/26 02:54:26;;;;;;;5.35;2.55;;;;;;;13.88;87.79;97730.23;1849173;77;21096;-60
2022/07/26 02:56:52;;;;;;;5.12;2.75;;;;;;;13.88;88.00;97730.77;1849187;77;20864;-62
2022/07/26 02:59:19;;;;;;;7.40;3.00;;;;;;;13.90;88.22;97722.63;1849166;77;20856;-64
2022/07/26 03:01:45;;;;;;;5.28;2.72;;;;;;;13.92;88.32;97715.59;1849101;77;20888;-63
2022/07/26 03:04:12;;;;;;;5.30;2.98;;;;;;;13.93;88.41;97719.30;1842441;77;20829;-62
2022/07/26 03:06:38;;;;;;;4.80;2.52;;;;;;;13.95;88.33;97717.62;1838524;78;21096;-63
2022/07/26 03:09:05;;;;;;;6.03;3.00;;;;;;;13.95;88.19;97714.94;1838447;78;20994;-64
2022/07/26 03:11:31;;;;;;;6.65;2.83;;;;;;;13.94;88.18;97713.38;1838513;78;20833;-63
2022/07/26 03:13:58;;;;;;;2.98;2.50;;;;;;;13.96;88.24;97713.84;1838703;78;20912;-63
2022/07/26 03:16:24;;;;;;;4.10;2.92;;;;;;;13.95;88.35;97716.28;1838522;78;20927;-62
2022/07/26 03:18:51;;;;;;;3.75;2.87;;;;;;;13.97;88.36;97710.81;1838617;78;21110;-61
2022/07/26 03:21:17;;;;;;;4.25;2.60;;;;;;;13.98;88.39;97712.96;1838532;77;20924;-62
2022/07/26 03:23:44;;;;;;;4.45;2.62;;;;;;;14.00;88.75;97717.47;1838519;77;20864;-64
2022/07/26 03:26:10;;;;;;;5.87;3.27;;;;;;;14.09;89.48;97717.70;1838554;78;20865;-62
2022/07/26 03:28:38;;;;;;;5.17;3.30;;;;;;;14.19;89.68;97721.96;1838806;78;21466;-62
2022/07/26 03:31:04;;;;;;;6.17;3.52;;;;;;;14.31;90.03;97723.48;1838491;78;21231;-64
2022/07/26 03:33:31;;;;;;;3.05;2.75;;;;;;;14.45;90.20;97717.34;1838544;78;20861;-63
2022/07/26 03:35:57;;;;;;;7.95;2.90;;;;;;;14.58;89.99;97708.83;1838601;78;20896;-61
2022/07/26 03:38:25;;;;;;;5.08;3.08;;;;;;;14.68;89.60;97713.30;1838471;78;20911;-62
2022/07/26 03:40:51;;;;;;;3.50;2.62;;;;;;;14.79;89.33;97709.13;1838608;77;20884;-64
2022/07/26 03:43:22;;;;;;;5.47;2.70;;;;;;;14.91;88.87;97711.92;1838563;78;21105;-64
2022/07/26 03:45:46;;;;;;;4.97;3.25;;;;;;;14.97;88.24;97710.64;1838457;78;20928;-64
2022/07/26 03:48:12;;;;;;;9.58;3.15;;;;;;;14.99;87.84;97715.16;1838578;78;20896;-64
2022/07/26 03:50:39;;;;;;;3.95;3.25;;;;;;;14.99;87.93;97715.16;1838563;78;20947;-62
2022/07/26 03:53:05;;;;;;;4.62;3.00;;;;;;;15.05;88.13;97715.19;1838807;78;21529;-63
2022/07/26 03:58:17;;;;;;;3.50;3.10;;;;;;;15.32;88.01;97710.44;1838786;78;21047;-63
2022/07/26 04:00:45;;;;;;;5.78;3.55;;;;;;;15.47;87.71;97718.00;1838766;78;21609;-63
2022/07/26 04:03:12;;;;;;;6.78;3.40;;;;;;;15.58;87.38;97707.84;1839301;77;20884;-62
2022/07/26 04:05:38;;;;;;;3.75;3.10;;;;;;;15.66;87.09;97711.59;1849163;77;20927;-61
2022/07/26 04:08:05;;;;;;;3.58;2.72;;;;;;;15.74;86.73;97709.38;1849204;77;21291;-64
2022/07/26 04:10:31;;;;;;;3.72;3.10;;;;;;;15.84;86.44;97704.13;1849047;77;20891;-64
2022/07/26 04:12:58;;;;;;;6.22;3.05;;;;;;;15.93;86.07;97700.80;1849205;77;20951;-62
2022/07/26 04:15:24;;;;;;;3.47;2.90;;;;;;;16.01;85.78;97703.44;1849179;77;20954;-64
2022/07/26 04:17:51;;;;;;;3.47;2.67;;;;;;;16.11;85.47;97697.59;1849121;77;20869;-62
2022/07/26 04:20:17;;;;;;;4.10;2.92;;;;;;;16.21;85.09;97703.94;1849212;77;21246;-64
2022/07/26 04:22:44;;;;;;;6.12;2.98;;;;;;;16.29;84.77;97701.73;1849114;77;20887;-61
2022/07/26 04:25:10;;;;;;;7.12;2.77;;;;;;;16.36;84.39;97705.23;1849208;77;20949;-62
2022/07/26 04:27:37;;;;;;;4.87;3.40;;;;;;;16.45;84.26;97704.57;1849077;77;20967;-62
2022/07/26 04:30:06;;;;;;;8.05;3.58;;;;;;;16.50;84.14;97707.62;1849226;77;20903;-62
2022/07/26 04:32:32;;;;;;;6.62;4.35;;;;;;;16.56;84.00;97704.97;1849469;77;21056;-62
2022/07/26 04:34:58;;;;;;;7.55;4.28;;;;;;;16.62;84.01;97693.59;1849336;77;21482;-64
2022/07/26 04:37:25;;;;;;;7.05;5.60;;;;;;;16.68;83.80;97692.80;1849023;77;20947;-65
2022/07/26 04:39:52;;;;;;;9.13;5.35;;;;;;;16.74;83.70;97685.50;1849046;77;20884;-64
2022/07/26 04:42:18;;;;;;;8.60;5.08;;;;;;;16.85;83.58;97691.24;1849158;77;20931;-64
2022/07/26 04:44:44;;;;;;;7.62;5.85;;;;;;;16.93;83.44;97684.94;1849033;77;21862;-62
2022/07/26 04:47:11;;;;;;;20.90;10.13;;;;;;;17.04;83.26;97690.13;1849001;77;20899;-65
2022/07/26 04:49:37;;;;;;;13.78;10.10;;;;;;;17.11;82.89;97678.16;1849064;77;20959;-66
2022/07/26 04:52:05;;;;;;;18.30;8.98;;;;;;;17.17;82.68;97670.03;1849157;77;20876;-64
2022/07/26 04:54:31;;;;;;;13.28;5.75;;;;;;;17.23;82.38;97659.77;1849285;77;20895;-65
2022/07/26 04:56:58;;;;;;;7.95;4.85;;;;;;;17.31;81.94;97665.05;1849384;77;21778;-62
2022/07/26 04:59:24;;;;;;;5.50;3.83;;;;;;;17.38;81.84;97665.25;1849001;77;21339;-63
2022/07/26 05:01:51;;;;;;;5.97;4.10;;;;;;;17.46;81.60;97661.64;1849052;77;20899;-64
2022/07/26 05:04:17;;;;;;;8.13;4.17;;;;;;;17.53;81.40;97657.02;1849130;77;20966;-64
2022/07/26 05:06:44;;;;;;;6.60;4.20;;;;;;;17.59;81.22;97659.14;1849296;77;20899;-62
2022/07/26 05:09:10;;;;;;;8.50;4.33;;;;;;;17.64;80.89;97654.08;1849069;77;21104;-62
2022/07/26 05:11:37;;;;;;;5.47;3.92;;;;;;;17.71;80.59;97653.69;1849309;77;21391;-65
2022/07/26 05:14:04;;;;;;;7.08;4.17;;;;;;;17.78;80.31;97653.88;1849173;77;20833;-63
2022/07/26 05:16:31;;;;;;;10.08;4.15;;;;;;;17.83;80.02;97661.56;1849035;77;20848;-62
2022/07/26 05:18:57;;;;;;;4.72;3.40;;;;;;;17.88;79.87;97655.88;1849184;77;20884;-61
2022/07/26 05:21:24;;;;;;;7.20;3.95;;;;;;;17.93;79.56;97652.92;1849128;77;21105;-65
2022/07/26 05:23:50;;;;;;;6.22;4.00;;;;;;;18.00;79.49;97651.76;1848975;77;21294;-64
2022/07/26 05:26:16;;;;;;;11.75;4.95;;;;;;;18.08;79.19;97652.19;1844995;77;20987;-63
2022/07/26 05:28:43;;;;;;;10.18;5.28;;;;;;;18.14;78.83;97646.72;1831646;77;21433;-65
2022/07/26 05:31:09;;;;;;;12.85;6.72;;;;;;;18.22;78.54;97647.14;1825069;77;20997;-63
2022/07/26 05:33:36;;;;;;;19.15;8.53;;;;;;;18.28;78.20;97647.09;1835744;77;21229;-62
2022/07/26 05:36:03;;;;;;;16.32;9.48;;;;;;;18.36;77.93;97647.50;1807748;77;20896;-63
2022/07/26 05:38:30;;;;;;;18.27;9.55;;;;;;;18.42;77.74;97648.25;1813091;77;20909;-63
2022/07/26 05:40:56;;;;;;;22.27;9.50;;;;;;;18.51;77.50;97652.20;1818975;79;20941;-62
2022/07/26 05:43:24;;;;;;;13.90;6.95;;;;;;;18.63;76.86;97650.73;1818995;79;20929;-63
2022/07/26 05:45:51;;;;;;;13.05;5.58;;;;;;;18.74;76.44;97646.37;1819160;79;22310;-64
2022/07/26 05:48:17;;;;;;;7.55;3.85;;;;;;;18.84;75.14;97647.17;1818714;79;20934;-66
2022/07/26 05:50:44;;;;;;;4.12;3.45;;;;;;;18.94;74.09;97640.42;1819041;79;20929;-63
2022/07/26 05:53:10;;;;;;;7.08;3.10;;;;;;;19.03;73.38;97637.73;1819163;79;20941;-61
2022/07/26 05:55:37;;;;;;;4.03;2.85;;;;;;;19.12;72.83;97638.33;1823452;77;20920;-58
2022/07/26 05:58:03;;;;;;;5.10;3.30;;;;;;;19.20;72.28;97636.56;1844648;77;21101;-63
2022/07/26 06:00:31;;;;;;;4.17;2.62;;;;;;;19.28;71.85;97636.16;1821852;77;46911;-61
2022/07/26 06:02:58;;;;;;;5.75;2.08;;;;;;;19.36;71.11;97636.56;1811824;77;20964;-67
2022/07/26 06:05:24;;;;;;;4.17;1.98;;;;;;;19.43;71.00;97631.28;1823475;77;20872;-60
2022/07/26 06:07:50;;;;;;;4.37;2.20;;;;;;;19.53;70.69;97636.92;1825598;77;20965;-60
2022/07/26 06:10:17;;;;;;;4.22;2.30;;;;;;;19.66;70.87;97633.51;1854318;77;21158;-62
2022/07/26 06:12:43;;;;;;;7.53;2.37;;;;;;;19.78;70.80;97634.13;1854056;77;20863;-59
2022/07/26 06:15:10;;;;;;;3.62;2.20;;;;;;;19.90;70.38;97637.30;1838019;77;20982;-58
2022/07/26 06:17:41;;;;;;;3.75;2.27;;;;;;;19.99;69.53;97637.86;1823481;77;20987;-61
2022/07/26 06:20:10;;;;;;;6.03;2.37;;;;;;;20.06;68.94;97634.48;1834446;77;20980;-57
2022/07/26 06:22:36;;;;;;;3.98;2.30;;;;;;;20.13;69.14;97627.25;1800211;79;21261;-62
2022/07/26 06:25:04;;;;;;;3.00;2.10;;;;;;;20.22;69.41;97629.19;1808856;79;21422;-64
2022/07/26 06:27:31;;;;;;;2.05;1.80;;;;;;;20.29;68.57;97633.39;1772103;80;21007;-63
2022/07/26 06:29:58;;;;;;;6.58;2.40;;;;;;;20.37;67.39;97634.31;1792884;79;21474;-69
2022/07/26 06:32:24;;;;;;;3.22;1.92;;;;;;;20.44;67.19;97643.36;1833488;77;20948;-64
2022/07/26 06:34:51;;;;;;;3.30;2.10;;;;;;;20.49;67.10;97630.63;1845101;77;21122;-61
2022/07/26 06:37:17;;;;;;;4.15;1.90;;;;;;;20.56;67.23;97636.94;1819885;77;20960;-62
2022/07/26 06:39:44;;;;;;;2.00;1.80;;;;;;;20.65;66.96;97629.91;1840145;77;20992;-61
2022/07/26 06:42:16;;;;;;;4.30;1.70;;;;;;;20.75;67.19;97627.35;1846130;77;20991;-62
2022/07/26 06:44:46;;;;;;;5.10;1.92;;;;;;;20.88;66.92;97626.59;1827628;77;20968;-63
2022/07/26 06:47:12;;;;;;;4.67;2.00;;;;;;;21.00;67.24;97620.94;1820692;77;21196;-63
2022/07/26 06:49:39;;;;;;;2.30;1.80;;;;;;;21.13;66.56;97623.11;1834671;78;20955;-64
2022/07/26 06:52:05;;;;;;;4.08;1.67;;;;;;;21.24;66.15;97616.46;1840920;77;21018;-61
2022/07/26 06:54:32;;;;;;;5.50;1.67;;;;;;;21.36;65.93;97610.77;1827816;77;21092;-58
2022/07/26 06:57:01;;;;;;;6.25;1.70;;;;;;;21.45;65.27;97609.94;1825514;77;21058;-62
2022/07/26 06:59:30;;;;;;;3.62;1.60;;;;;;;21.55;65.07;97611.23;1827273;77;21096;-66
2022/07/26 07:01:56;;;;;;;6.53;3.15;;;;;;;21.62;63.58;97599.81;1839182;77;21441;-59
2022/07/26 07:04:23;;;;;;;5.65;2.95;;;;;;;21.71;64.27;97598.18;1835993;77;21502;-65
2022/07/26 07:06:49;;;;;;;9.85;3.25;;;;;;;21.78;64.28;97589.52;1828674;77;21435;-65
2022/07/26 07:09:16;;;;;;;5.37;2.50;;;;;;;21.87;63.83;97592.53;1845722;77;20965;-64
2022/07/26 07:11:43;;;;;;;5.70;2.02;;;;;;;21.94;63.07;97592.04;1834274;77;21189;-65
2022/07/26 07:14:12;;;;;;;6.05;3.45;;;;;;;22.02;62.57;97593.66;1853419;77;20982;-66
2022/07/26 07:16:40;;;;;;;7.12;2.83;;;;;;;22.10;61.85;97595.31;1838862;77;21672;-65
2022/07/26 07:19:06;;;;;;;8.45;3.12;;;;;;;22.14;61.61;97591.28;1835128;77;20963;-64
2022/07/26 07:21:38;;;;;;;7.78;4.12;;;;;;;22.17;61.30;97591.30;1840322;77;20983;-61
2022/07/26 07:24:05;;;;;;;10.50;3.62;;;;;;;22.21;61.68;97588.62;1847179;77;21098;-69
2022/07/26 07:26:32;;;;;;;9.03;3.52;;;;;;;22.26;61.26;97585.52;1817859;77;21008;-66
2022/07/26 07:28:58;;;;;;;6.37;3.10;;;;;;;22.33;60.85;97591.05;1835403;77;20908;-63
2022/07/26 07:31:25;;;;;;;6.03;3.60;;;;;;;22.41;61.53;97591.32;1839180;77;20949;-64
2022/07/26 07:33:57;;;;;;;8.65;3.60;;;;;;;22.48;61.19;97591.38;1843479;77;21139;-62
2022/07/26 07:36:23;;;;;;;6.00;3.00;;;;;;;22.56;60.80;97588.14;1853640;77;21207;-60
2022/07/26 07:38:50;;;;;;;5.20;2.55;;;;;;;22.62;60.58;97590.16;1841540;77;20896;-57
2022/07/26 07:41:17;;;;;;;4.30;2.70;;;;;;;22.68;59.56;97596.83;1831589;77;21342;-59
2022/07/26 07:43:44;;;;;;;3.35;2.20;;;;;;;22.74;59.61;97595.33;1836927;77;21004;-56
2022/07/26 07:46:11;;;;;;;5.10;3.00;;;;;;;22.81;59.62;97600.84;1825031;77;21529;-60
2022/07/26 07:48:39;;;;;;;9.23;3.72;;;;;;;22.90;59.33;97599.92;1840520;77;21312;-62
2022/07/26 07:51:08;;;;;;;9.33;4.65;;;;;;;22.97;58.50;97604.64;1833650;77;21416;-57
2022/07/26 07:53:35;;;;;;;9.73;4.17;;;;;;;23.04;58.97;97598.66;1835453;77;20939;-57
2022/07/26 07:56:01;;;;;;;6.78;3.27;;;;;;;23.11;58.22;97601.43;1840570;77;21403;-59
2022/07/26 07:58:28;;;;;;;4.85;2.90;;;;;;;23.19;57.65;97598.16;1843830;77;21255;-58
2022/07/26 08:00:54;;;;;;;4.95;2.77;;;;;;;23.27;58.02;97597.63;1837962;77;21678;-64
2022/07/26 08:03:21;;;;;;;2.42;2.12;;;;;;;23.37;58.28;97599.64;1841159;77;21029;-63
2022/07/26 08:05:47;;;;;;;3.15;2.15;;;;;;;23.44;57.87;97600.47;1835247;77;20972;-63
2022/07/26 08:08:15;;;;;;;5.40;3.12;;;;;;;23.51;58.11;97596.97;1841348;77;21104;-64
2022/07/26 08:10:42;;;;;;;6.35;3.17;;;;;;;23.58;57.52;97594.27;1826908;77;21009;-64
2022/07/26 08:13:09;;;;;;;5.50;3.10;;;;;;;23.65;57.07;97592.93;1825461;77;21746;-63
2022/07/26 08:15:36;;;;;;;4.47;3.27;;;;;;;23.71;57.02;97585.94;1826213;77;21010;-64
2022/07/26 08:18:02;;;;;;;5.00;3.10;;;;;;;23.79;56.80;97584.78;1835430;77;21060;-63
2022/07/26 08:20:29;;;;;;;6.50;3.20;;;;;;;23.88;56.13;97589.91;1833199;77;21098;-60
2022/07/26 08:22:56;;;;;;;11.78;4.35;;;;;;;23.93;55.93;97591.66;1845087;77;21094;-62
2022/07/26 08:25:22;;;;;;;9.80;4.62;;;;;;;23.99;55.38;97584.66;1843920;77;21244;-63
2022/07/26 08:27:50;;;;;;;7.78;2.83;;;;;;;24.10;55.14;97585.48;1836559;77;21414;-61
2022/07/26 08:30:17;;;;;;;3.15;2.50;;;;;;;24.17;53.53;97589.59;1833462;77;21033;-60
2022/07/26 08:32:43;;;;;;;3.80;2.45;;;;;;;24.22;53.81;97585.11;1834806;77;20941;-62
2022/07/26 08:35:11;;;;;;;6.25;2.80;;;;;;;24.29;54.58;97585.13;1835563;77;21326;-61
2022/07/26 08:37:38;;;;;;;4.50;1.98;;;;;;;24.38;53.60;97590.20;1826096;77;22211;-58
2022/07/26 08:40:07;;;;;;;5.00;2.20;;;;;;;24.48;54.15;97589.44;1833444;77;21073;-59
2022/07/26 08:42:34;;;;;;;4.20;2.30;;;;;;;24.56;54.11;97582.80;1830514;77;21083;-58
2022/07/26 08:45:01;;;;;;;5.78;2.20;;;;;;;24.63;53.10;97580.64;1830630;77;20926;-60
2022/07/26 08:47:27;;;;;;;4.87;2.45;;;;;;;24.68;51.57;97581.62;1823240;77;21017;-61
2022/07/26 08:49:54;;;;;;;4.03;2.12;;;;;;;24.69;50.96;97577.70;1829717;77;21349;-57
2022/07/26 08:52:20;;;;;;;5.15;1.70;;;;;;;24.70;51.38;97576.53;1838231;77;20958;-57
2022/07/26 08:54:50;;;;;;;2.33;1.72;;;;;;;24.74;51.55;97573.20;1840556;77;20991;-61
2022/07/26 08:57:16;;;;;;;3.83;1.82;;;;;;;24.79;51.64;97572.84;1837694;77;21450;-59
2022/07/26 08:59:43;;;;;;;4.30;1.80;;;;;;;24.81;50.90;97570.48;1840532;75;20947;-58
2022/07/26 09:02:12;;;;;;;6.75;2.00;;;;;;;24.85;51.81;97572.62;1840204;77;21111;-60
2022/07/26 09:04:41;;;;;;;4.70;2.10;;;;;;;24.92;50.88;97576.14;1834234;77;20904;-59
2022/07/26 09:07:15;;;;;;;8.35;2.15;;;;;;;24.98;50.99;97573.79;1827048;77;21080;-60
2022/07/26 09:10:02;;;;;;;2.80;2.00;;;;;;;25.04;50.00;97570.25;1821260;77;21034;-61
2022/07/26 09:12:30;;;;;;;3.55;1.92;;;;;;;25.05;49.37;97566.92;1824756;77;22409;-59
2022/07/26 09:14:57;;;;;;;2.77;1.85;;;;;;;25.08;50.90;97567.52;1827499;77;21292;-62
2022/07/26 09:17:24;;;;;;;6.58;2.22;;;;;;;25.18;51.10;97568.67;1832510;77;21042;-59
2022/07/26 09:20:11;;;;;;;5.72;1.87;;;;;;;25.27;49.93;97568.45;1833193;77;20980;-58
2022/07/26 09:23:06;;;;;;;2.85;1.60;;;;;;;25.35;49.96;97567.81;1838816;77;21054;-58
2022/07/26 09:25:40;;;;;;;4.25;2.35;;;;;;;25.41;49.76;97561.55;1821522;77;21129;-59
2022/07/26 09:28:29;;;;;;;4.03;1.80;;;;;;;25.46;48.94;97555.66;1831125;77;21098;-57
2022/07/26 09:31:04;;;;;;;5.40;1.85;;;;;;;25.53;49.36;97557.61;1828503;77;21035;-59
2022/07/26 09:36:16;;;;;;;3.30;1.70;;;;;;;25.67;48.88;97555.56;1817636;77;20991;-59
2022/07/26 09:38:48;;;;;;;6.62;1.98;;;;;;;25.75;49.33;97556.31;1831753;77;21398;-57
2022/07/26 09:41:21;;;;;;;2.72;1.57;;;;;;;25.84;49.26;97553.15;1831460;77;21113;-60
2022/07/26 09:43:49;;;;;;;4.45;1.57;;;;;;;25.93;48.77;97550.74;1829385;77;21047;-59
2022/07/26 09:46:16;;;;;;;5.03;1.92;;;;;;;26.02;48.62;97551.86;1836359;77;20990;-59
2022/07/26 09:48:43;;;;;;;9.70;1.80;;;;;;;26.12;48.99;97554.37;1833317;77;21024;-59
2022/07/26 09:51:10;;;;;;;4.92;1.65;;;;;;;26.21;48.39;97554.70;1823228;77;21077;-59
2022/07/26 09:53:45;;;;;;;3.83;1.55;;;;;;;26.29;48.83;97556.98;1823952;77;21222;-59
2022/07/26 09:56:13;;;;;;;3.02;1.75;;;;;;;26.37;48.35;97553.59;1824831;77;20959;-59
2022/07/26 09:58:39;;;;;;;7.55;2.02;;;;;;;26.42;46.82;97547.68;1820418;77;21062;-59
2022/07/26 10:01:07;;;;;;;4.45;2.20;;;;;;;26.40;47.29;97554.92;1825107;77;21460;-58
2022/07/26 10:03:34;;;;;;;5.65;2.15;;;;;;;26.45;46.79;97552.34;1826135;77;21552;-59
2022/07/26 10:06:01;;;;;;;3.83;1.62;;;;;;;26.46;47.08;97547.84;1829039;77;22729;-59
2022/07/26 10:08:29;;;;;;;3.40;1.42;;;;;;;26.45;45.95;97547.63;1821510;78;20982;-59
2022/07/26 10:11:09;;;;;;;3.80;1.98;;;;;;;26.44;44.64;97557.66;1822380;78;20971;-59
2022/07/26 10:13:37;;;;;;;5.87;1.70;;;;;;;26.37;45.40;97546.15;1821391;78;21002;-59
2022/07/26 10:16:05;;;;;;;6.15;2.52;;;;;;;26.38;45.89;97546.91;1827964;78;20960;-59
2022/07/26 10:18:41;;;;;;;8.68;2.47;;;;;;;26.42;45.81;97542.19;1817804;78;21225;-59
2022/07/26 10:21:26;;;;;;;5.15;2.20;;;;;;;26.49;46.04;97547.63;1821951;78;20974;-59
2022/07/26 10:23:57;;;;;;;4.22;2.45;;;;;;;26.56;45.59;97548.94;1816263;78;20888;-59
2022/07/26 10:26:35;;;;;;;5.25;2.00;;;;;;;26.58;45.53;97550.68;1823276;78;21110;-59
2022/07/26 10:29:23;;;;;;;2.85;1.72;;;;;;;26.66;45.46;97551.41;1819679;78;21350;-59
2022/07/26 10:32:03;;;;;;;3.17;1.50;;;;;;;26.70;45.31;97547.44;1828872;78;21167;-58
2022/07/26 10:34:35;;;;;;;3.62;2.00;;;;;;;26.77;45.60;97546.03;1826323;78;20924;-58
2022/07/26 10:37:05;;;;;;;3.52;1.90;;;;;;;26.78;45.29;97535.20;1829013;78;21024;-58
2022/07/26 10:39:31;;;;;;;4.87;2.00;;;;;;;26.78;45.02;97535.20;1827057;78;21078;-58
2022/07/26 10:42:04;;;;;;;8.55;2.00;;;;;;;26.79;44.91;97531.28;1833659;77;21010;-59
2022/07/26 10:44:37;;;;;;;9.50;2.27;;;;;;;26.80;45.33;97525.20;1749249;80;21116;-59
2022/07/26 10:47:17;;;;;;;5.50;3.42;;;;;;;26.86;45.81;97533.96;1807646;78;20978;-60
2022/07/26 10:49:58;;;;;;;4.03;1.90;;;;;;;26.91;44.85;97532.15;1812402;78;21510;-60
2022/07/26 10:52:28;;;;;;;3.55;1.80;;;;;;;26.93;44.61;97536.64;1818790;78;20955;-60
2022/07/26 10:55:04;;;;;;;3.17;1.70;;;;;;;26.96;44.87;97530.34;1806553;78;21457;-60
2022/07/26 10:57:37;;;;;;;3.60;1.30;;;;;;;27.03;45.48;97528.89;1828042;78;21111;-59
2022/07/26 11:00:21;;;;;;;5.97;2.02;;;;;;;27.10;45.26;97530.18;1823306;78;20948;-59
2022/07/26 11:02:55;;;;;;;3.27;1.67;;;;;;;27.14;44.36;97525.41;1816555;78;20922;-59
2022/07/26 11:05:30;;;;;;;3.72;2.25;;;;;;;27.18;44.90;97521.86;1772380;78;21057;-58
2022/07/26 11:08:03;;;;;;;2.50;1.35;;;;;;;27.27;44.31;97523.52;1808475;78;21025;-59
2022/07/26 11:10:39;;;;;;;3.87;1.67;;;;;;;27.30;43.53;97518.58;1803116;79;21795;-59
2022/07/26 11:13:12;;;;;;;3.17;1.50;;;;;;;27.26;43.54;97518.60;1789513;78;21447;-59
2022/07/26 11:15:43;;;;;;;4.80;1.72;;;;;;;27.28;44.12;97517.59;1759938;80;21054;-59
2022/07/26 11:18:21;;;;;;;2.25;1.80;;;;;;;27.34;44.22;97516.55;1839964;77;21030;-59
2022/07/26 11:20:52;;;;;;;4.00;1.45;;;;;;;27.38;44.29;97518.09;1843039;77;20966;-60
2022/07/26 11:23:29;;;;;;;4.75;1.25;;;;;;;27.42;43.60;97518.04;1834358;77;21712;-60
2022/07/26 11:26:16;;;;;;;3.08;1.40;;;;;;;27.43;44.21;97508.61;1833475;77;21057;-61
2022/07/26 11:28:59;;;;;;;6.12;1.90;;;;;;;27.51;44.19;97512.84;1838214;77;21488;-61
2022/07/26 11:31:37;;;;;;;8.40;2.40;;;;;;;27.69;43.85;97507.88;1835924;76;21078;-61
2022/07/26 11:34:05;;;;;;;6.00;2.42;;;;;;;27.83;43.43;97510.42;1832140;76;20952;-60
2022/07/26 11:36:41;;;;;;;2.42;1.95;;;;;;;27.98;41.76;97504.88;1837737;77;21094;-61
2022/07/26 11:39:11;;;;;;;3.12;1.82;;;;;;;28.07;42.46;97517.58;1845154;77;20903;-59
2022/07/26 11:41:39;;;;;;;4.33;1.57;;;;;;;28.19;41.15;97506.58;1844522;77;21037;-59